»·PEaware :: N51254 KSNA-KBUR

N51254 :: KSNA-KBUR

FLIGHT INFORMATION

Flight Status: Arrived
Operator: Privately registered:
United States
More flights under this callsign
Pilot: Hasan B. (9605)
Aircraft: CESSNA 172 SKYHAWK
(C172)
More flights by this aircraft type
Origin: KSNA John Wayne-Orange Co
United States
Destination: KBUR Bob Hope-Burbank
United States
More flights between these airports :: More routes between these airports
Route: +SLI V23 POPPR SMO125R SMO SMO311R SILEX
File this flight plan on PilotEdge
Remarks:
Altitude:
(Current/Filed)
4,000ft
Speed:
(Current/Filed)
100kts
Departed: 08-Nov-18 03:59 PM
Arrived: 08-Nov-18 04:38 PM
Distance/Time
Traveled:
40nm/0:39
Distance/Time
To Go:
Arrived

Flight Plot

Page will automatically refresh every two minutes.


Map Options




Map Legend


Flown Route
Filed Route
Departure Airport
Arrival Airport
Navaid (VOR, NDB)
Fix

Horizontal Profiles

Position Reports

Time Latitude Longitude Heading Altitude Ground
Speed
08-Nov-18 15:35 33.672574 -117.873165 202 60ft 0kts
08-Nov-18 15:36 33.672574 -117.873165 202 60ft 0kts
08-Nov-18 15:37 33.672574 -117.873165 202 60ft 0kts
08-Nov-18 15:38 33.672574 -117.873165 202 60ft 0kts
08-Nov-18 15:39 33.672574 -117.873165 202 60ft 0kts
08-Nov-18 15:40 33.672574 -117.873165 202 60ft 0kts
08-Nov-18 15:41 33.672574 -117.873165 202 60ft 0kts
08-Nov-18 15:42 33.672574 -117.873165 202 60ft 0kts
08-Nov-18 15:43 33.672574 -117.873165 202 60ft 0kts
08-Nov-18 15:44 33.672574 -117.873165 202 60ft 0kts
08-Nov-18 15:45 33.672574 -117.873165 202 60ft 0kts
08-Nov-18 15:46 33.672263 -117.873190 144 60ft 12kts
08-Nov-18 15:47 33.676144 -117.870042 30 60ft 28kts
08-Nov-18 15:48 33.681254 -117.866650 92 60ft 7kts
08-Nov-18 15:49 33.681253 -117.866628 92 60ft 0kts
08-Nov-18 15:50 33.681253 -117.866628 92 60ft 0kts
08-Nov-18 15:51 33.681253 -117.866628 92 60ft 0kts
08-Nov-18 15:52 33.681253 -117.866628 92 60ft 0kts
08-Nov-18 15:53 33.681253 -117.866628 92 60ft 0kts
08-Nov-18 15:54 33.681253 -117.866628 92 60ft 0kts
08-Nov-18 15:55 33.681253 -117.866628 92 60ft 0kts
08-Nov-18 15:56 33.681253 -117.866628 92 60ft 0kts
08-Nov-18 15:57 33.681253 -117.866628 92 60ft 0kts
08-Nov-18 15:58 33.681253 -117.866628 92 60ft 0kts
08-Nov-18 15:59 33.681253 -117.866628 92 60ft 0kts
08-Nov-18 16:00 33.681253 -117.866628 92 60ft 0kts
08-Nov-18 16:01 33.681253 -117.866628 92 60ft 0kts
08-Nov-18 16:02 33.675714 -117.868825 206 65ft 89kts
08-Nov-18 16:03 33.654992 -117.889891 239 819ft 109kts
08-Nov-18 16:04 33.638286 -117.916704 233 1804ft 95kts
08-Nov-18 16:05 33.621817 -117.942651 240 2660ft 96kts
08-Nov-18 16:06 33.605452 -117.969255 237 3433ft 98kts
08-Nov-18 16:07 33.594737 -117.998212 298 3947ft 99kts
08-Nov-18 16:08 33.614617 -118.018968 319 4001ft 95kts
08-Nov-18 16:09 33.631558 -118.044283 310 4040ft 97kts
08-Nov-18 16:10 33.646878 -118.074140 306 4073ft 114kts
08-Nov-18 16:11 33.668137 -118.104266 321 3980ft 124kts
08-Nov-18 16:12 33.692928 -118.132240 318 4041ft 123kts
08-Nov-18 16:13 33.719631 -118.157139 323 4043ft 121kts
08-Nov-18 16:14 33.743759 -118.182261 323 4053ft 111kts
08-Nov-18 16:15 33.767244 -118.206665 323 4022ft 113kts
08-Nov-18 16:16 33.791553 -118.231848 322 4006ft 119kts
08-Nov-18 16:17 33.817028 -118.257988 322 4006ft 121kts
08-Nov-18 16:18 33.842670 -118.284150 323 4006ft 121kts
08-Nov-18 16:19 33.869312 -118.311095 323 4006ft 126kts
08-Nov-18 16:20 33.896328 -118.338329 323 4006ft 127kts
08-Nov-18 16:21 33.923843 -118.364336 316 4007ft 124kts
08-Nov-18 16:22 33.949422 -118.392025 316 4009ft 123kts
08-Nov-18 16:23 33.974592 -118.419834 313 4011ft 122kts
08-Nov-18 16:24 34.000067 -118.446878 322 4011ft 122kts
08-Nov-18 16:25 34.028051 -118.470435 320 4013ft 122kts
08-Nov-18 16:26 34.054145 -118.493968 324 3981ft 100kts
08-Nov-18 16:27 34.076408 -118.510362 322 3957ft 88kts
08-Nov-18 16:28 34.096386 -118.528248 313 4097ft 90kts
08-Nov-18 16:29 34.116415 -118.549962 326 4045ft 101kts
08-Nov-18 16:30 34.140968 -118.565492 331 3981ft 91kts
08-Nov-18 16:31 34.160006 -118.582234 323 3966ft 83kts
08-Nov-18 16:32 34.180018 -118.597607 320 4026ft 84kts
08-Nov-18 16:33 34.199799 -118.605181 47 3811ft 90kts
08-Nov-18 16:34 34.197178 -118.571494 78 3046ft 102kts
08-Nov-18 16:35 34.198325 -118.537948 84 3010ft 103kts
08-Nov-18 16:36 34.197437 -118.504225 78 2985ft 93kts
08-Nov-18 16:37 34.198016 -118.472352 83 2418ft 98kts
08-Nov-18 16:38 34.198307 -118.440450 79 1897ft 96kts
08-Nov-18 16:39 34.198343 -118.409964 79 1445ft 89kts
08-Nov-18 16:40 34.197826 -118.380382 82 1079ft 71kts
08-Nov-18 16:41 34.197794 -118.362341 85 719ft 28kts
08-Nov-18 16:42 34.196970 -118.360299 179 714ft 0kts
08-Nov-18 16:43 34.196966 -118.360300 177 714ft 0kts
08-Nov-18 16:44 34.196965 -118.360300 177 714ft 0kts
08-Nov-18 16:45 34.196965 -118.360300 177 714ft 0kts

Navigation Log

Ident Type
1. KSNA Airport
2. SLI Navaid
3. POPPR Fix
4. SMO Navaid
5. SILEX Fix
6. KBUR Airport